sensor_id;sensor_type;location;lat;lon;timestamp;P1;durP1;ratioP1;P2;durP2;ratioP2
79171;SDS011;68597;53.238;-1.418;2023-03-14T00:00:08;3.13;;;1.20;;
79171;SDS011;68597;53.238;-1.418;2023-03-14T00:02:35;3.55;;;1.27;;
79171;SDS011;68597;53.238;-1.418;2023-03-14T00:05:01;4.88;;;1.45;;
79171;SDS011;68597;53.238;-1.418;2023-03-14T00:07:26;5.50;;;1.65;;
79171;SDS011;68597;53.238;-1.418;2023-03-14T00:09:52;4.57;;;1.30;;
79171;SDS011;68597;53.238;-1.418;2023-03-14T00:12:17;1.98;;;0.90;;
79171;SDS011;68597;53.238;-1.418;2023-03-14T00:14:43;3.33;;;1.00;;
79171;SDS011;68597;53.238;-1.418;2023-03-14T00:17:10;3.70;;;1.00;;
79171;SDS011;68597;53.238;-1.418;2023-03-14T00:19:35;1.45;;;0.70;;
79171;SDS011;68597;53.238;-1.418;2023-03-14T00:22:01;2.75;;;0.93;;
79171;SDS011;68597;53.238;-1.418;2023-03-14T00:24:27;1.58;;;0.70;;
79171;SDS011;68597;53.238;-1.418;2023-03-14T00:26:52;2.30;;;0.82;;
79171;SDS011;68597;53.238;-1.418;2023-03-14T00:29:18;1.55;;;0.68;;
79171;SDS011;68597;53.238;-1.418;2023-03-14T00:31:44;3.97;;;1.05;;
79171;SDS011;68597;53.238;-1.418;2023-03-14T00:34:11;1.85;;;0.73;;
79171;SDS011;68597;53.238;-1.418;2023-03-14T00:36:36;3.08;;;1.00;;
79171;SDS011;68597;53.238;-1.418;2023-03-14T00:39:02;2.65;;;0.80;;
79171;SDS011;68597;53.238;-1.418;2023-03-14T00:41:30;1.63;;;0.65;;
79171;SDS011;68597;53.238;-1.418;2023-03-14T00:43:55;1.42;;;0.55;;
79171;SDS011;68597;53.238;-1.418;2023-03-14T00:46:21;2.20;;;0.73;;
79171;SDS011;68597;53.238;-1.418;2023-03-14T00:48:47;2.10;;;0.57;;
79171;SDS011;68597;53.238;-1.418;2023-03-14T00:51:14;2.38;;;0.80;;
79171;SDS011;68597;53.238;-1.418;2023-03-14T00:53:42;1.77;;;0.70;;
79171;SDS011;68597;53.238;-1.418;2023-03-14T00:56:09;1.58;;;0.80;;
79171;SDS011;68597;53.238;-1.418;2023-03-14T00:58:36;1.33;;;0.55;;
79171;SDS011;68597;53.238;-1.418;2023-03-14T01:01:05;2.10;;;0.70;;
79171;SDS011;68597;53.238;-1.418;2023-03-14T01:03:31;1.27;;;0.55;;
79171;SDS011;68597;53.238;-1.418;2023-03-14T01:06:05;3.72;;;1.00;;
79171;SDS011;68597;53.238;-1.418;2023-03-14T01:08:33;3.95;;;0.95;;
79171;SDS011;68597;53.238;-1.418;2023-03-14T01:10:59;1.65;;;0.93;;
79171;SDS011;68597;53.238;-1.418;2023-03-14T01:13:30;2.33;;;0.90;;
79171;SDS011;68597;53.238;-1.418;2023-03-14T01:16:00;2.40;;;1.00;;
79171;SDS011;68597;53.238;-1.418;2023-03-14T01:18:26;3.55;;;1.00;;
79171;SDS011;68597;53.238;-1.418;2023-03-14T01:20:51;2.20;;;1.10;;
79171;SDS011;68597;53.238;-1.418;2023-03-14T01:23:17;4.28;;;1.08;;
79171;SDS011;68597;53.238;-1.418;2023-03-14T01:25:44;3.38;;;1.30;;
79171;SDS011;68597;53.238;-1.418;2023-03-14T01:28:09;2.67;;;0.80;;
79171;SDS011;68597;53.238;-1.418;2023-03-14T01:30:35;2.60;;;1.08;;
79171;SDS011;68597;53.238;-1.418;2023-03-14T01:33:00;4.70;;;0.85;;
79171;SDS011;68597;53.238;-1.418;2023-03-14T01:35:26;2.20;;;1.27;;
79171;SDS011;68597;53.238;-1.418;2023-03-14T01:37:55;2.80;;;0.75;;
79171;SDS011;68597;53.238;-1.418;2023-03-14T01:40:22;1.50;;;0.93;;
79171;SDS011;68597;53.238;-1.418;2023-03-14T01:42:55;1.67;;;0.90;;
79171;SDS011;68597;53.238;-1.418;2023-03-14T01:48:25;1.42;;;0.77;;
79171;SDS011;68597;53.238;-1.418;2023-03-14T01:50:58;1.42;;;0.65;;
79171;SDS011;68597;53.238;-1.418;2023-03-14T01:53:24;3.00;;;0.98;;
79171;SDS011;68597;53.238;-1.418;2023-03-14T01:55:50;3.58;;;0.80;;
79171;SDS011;68597;53.238;-1.418;2023-03-14T01:58:19;4.65;;;1.05;;
79171;SDS011;68597;53.238;-1.418;2023-03-14T02:00:44;5.05;;;1.15;;
79171;SDS011;68597;53.238;-1.418;2023-03-14T02:03:11;3.45;;;0.88;;
79171;SDS011;68597;53.238;-1.418;2023-03-14T02:05:41;3.85;;;1.00;;
79171;SDS011;68597;53.238;-1.418;2023-03-14T02:08:16;2.53;;;0.73;;
79171;SDS011;68597;53.238;-1.418;2023-03-14T02:10:53;5.38;;;1.80;;
79171;SDS011;68597;53.238;-1.418;2023-03-14T02:13:34;2.75;;;0.73;;
79171;SDS011;68597;53.238;-1.418;2023-03-14T02:16:16;5.15;;;1.00;;
79171;SDS011;68597;53.238;-1.418;2023-03-14T02:18:53;5.75;;;1.27;;
79171;SDS011;68597;53.238;-1.418;2023-03-14T02:21:42;5.72;;;1.00;;
79171;SDS011;68597;53.238;-1.418;2023-03-14T02:24:17;5.47;;;1.00;;
79171;SDS011;68597;53.238;-1.418;2023-03-14T02:27:04;7.65;;;1.15;;
79171;SDS011;68597;53.238;-1.418;2023-03-14T02:29:44;3.42;;;1.10;;
79171;SDS011;68597;53.238;-1.418;2023-03-14T02:32:14;4.70;;;1.63;;
79171;SDS011;68597;53.238;-1.418;2023-03-14T02:34:42;6.30;;;1.20;;
79171;SDS011;68597;53.238;-1.418;2023-03-14T02:37:14;4.55;;;1.20;;
79171;SDS011;68597;53.238;-1.418;2023-03-14T02:39:45;6.38;;;1.55;;
79171;SDS011;68597;53.238;-1.418;2023-03-14T02:42:15;4.57;;;1.17;;
79171;SDS011;68597;53.238;-1.418;2023-03-14T02:44:47;3.88;;;1.10;;
79171;SDS011;68597;53.238;-1.418;2023-03-14T02:47:14;7.25;;;1.35;;
79171;SDS011;68597;53.238;-1.418;2023-03-14T02:49:41;4.68;;;1.00;;
79171;SDS011;68597;53.238;-1.418;2023-03-14T02:52:07;4.20;;;1.13;;
79171;SDS011;68597;53.238;-1.418;2023-03-14T02:54:32;3.30;;;1.02;;
79171;SDS011;68597;53.238;-1.418;2023-03-14T02:57:00;3.13;;;1.10;;
79171;SDS011;68597;53.238;-1.418;2023-03-14T02:59:26;4.28;;;1.33;;
79171;SDS011;68597;53.238;-1.418;2023-03-14T03:01:56;5.60;;;1.20;;
79171;SDS011;68597;53.238;-1.418;2023-03-14T03:04:25;5.95;;;1.33;;
79171;SDS011;68597;53.238;-1.418;2023-03-14T03:06:50;4.68;;;1.30;;
79171;SDS011;68597;53.238;-1.418;2023-03-14T03:09:16;3.38;;;1.17;;
79171;SDS011;68597;53.238;-1.418;2023-03-14T03:11:41;3.63;;;1.15;;
79171;SDS011;68597;53.238;-1.418;2023-03-14T03:14:10;4.32;;;1.05;;
79171;SDS011;68597;53.238;-1.418;2023-03-14T03:16:37;4.47;;;0.95;;
79171;SDS011;68597;53.238;-1.418;2023-03-14T03:19:03;6.00;;;1.30;;
79171;SDS011;68597;53.238;-1.418;2023-03-14T03:21:28;2.58;;;0.77;;
79171;SDS011;68597;53.238;-1.418;2023-03-14T03:23:54;4.97;;;1.10;;
79171;SDS011;68597;53.238;-1.418;2023-03-14T03:26:19;2.95;;;0.80;;
79171;SDS011;68597;53.238;-1.418;2023-03-14T03:28:45;4.50;;;1.10;;
79171;SDS011;68597;53.238;-1.418;2023-03-14T03:31:12;3.22;;;1.10;;
79171;SDS011;68597;53.238;-1.418;2023-03-14T03:33:39;4.57;;;1.40;;
79171;SDS011;68597;53.238;-1.418;2023-03-14T03:36:06;9.30;;;1.05;;
79171;SDS011;68597;53.238;-1.418;2023-03-14T03:38:35;4.75;;;1.10;;
79171;SDS011;68597;53.238;-1.418;2023-03-14T03:41:03;2.97;;;0.90;;
79171;SDS011;68597;53.238;-1.418;2023-03-14T03:43:29;6.88;;;1.20;;
79171;SDS011;68597;53.238;-1.418;2023-03-14T03:45:56;5.32;;;1.23;;
79171;SDS011;68597;53.238;-1.418;2023-03-14T03:48:22;8.38;;;1.50;;
79171;SDS011;68597;53.238;-1.418;2023-03-14T03:50:49;5.55;;;1.30;;
79171;SDS011;68597;53.238;-1.418;2023-03-14T03:55:44;4.00;;;0.85;;
79171;SDS011;68597;53.238;-1.418;2023-03-14T03:58:10;4.95;;;1.23;;
79171;SDS011;68597;53.238;-1.418;2023-03-14T04:00:35;5.25;;;1.27;;
79171;SDS011;68597;53.238;-1.418;2023-03-14T04:03:01;6.93;;;1.40;;
79171;SDS011;68597;53.238;-1.418;2023-03-14T04:05:27;9.10;;;1.85;;
79171;SDS011;68597;53.238;-1.418;2023-03-14T04:08:04;5.00;;;1.65;;
79171;SDS011;68597;53.238;-1.418;2023-03-14T04:10:33;5.78;;;1.48;;
79171;SDS011;68597;53.238;-1.418;2023-03-14T04:13:04;9.50;;;1.98;;
79171;SDS011;68597;53.238;-1.418;2023-03-14T04:15:31;6.38;;;1.63;;
79171;SDS011;68597;53.238;-1.418;2023-03-14T04:18:01;7.43;;;1.67;;
79171;SDS011;68597;53.238;-1.418;2023-03-14T04:20:26;6.90;;;1.50;;
79171;SDS011;68597;53.238;-1.418;2023-03-14T04:22:53;7.40;;;1.80;;
79171;SDS011;68597;53.238;-1.418;2023-03-14T04:25:20;6.85;;;1.45;;
79171;SDS011;68597;53.238;-1.418;2023-03-14T04:27:50;8.38;;;1.70;;
79171;SDS011;68597;53.238;-1.418;2023-03-14T04:30:21;6.03;;;1.60;;
79171;SDS011;68597;53.238;-1.418;2023-03-14T04:32:53;10.75;;;1.40;;
79171;SDS011;68597;53.238;-1.418;2023-03-14T04:35:21;7.22;;;1.40;;
79171;SDS011;68597;53.238;-1.418;2023-03-14T04:37:47;10.02;;;1.92;;
79171;SDS011;68597;53.238;-1.418;2023-03-14T04:40:13;10.93;;;1.63;;
79171;SDS011;68597;53.238;-1.418;2023-03-14T04:42:41;4.35;;;1.27;;
79171;SDS011;68597;53.238;-1.418;2023-03-14T04:45:07;10.30;;;2.05;;
79171;SDS011;68597;53.238;-1.418;2023-03-14T04:47:34;8.95;;;1.40;;
79171;SDS011;68597;53.238;-1.418;2023-03-14T04:50:00;16.60;;;2.47;;
79171;SDS011;68597;53.238;-1.418;2023-03-14T04:52:25;10.88;;;1.55;;
79171;SDS011;68597;53.238;-1.418;2023-03-14T04:54:51;11.02;;;2.22;;
79171;SDS011;68597;53.238;-1.418;2023-03-14T04:57:18;12.77;;;2.10;;
79171;SDS011;68597;53.238;-1.418;2023-03-14T04:59:45;15.82;;;2.53;;
79171;SDS011;68597;53.238;-1.418;2023-03-14T05:02:31;9.70;;;1.52;;
79171;SDS011;68597;53.238;-1.418;2023-03-14T05:05:21;9.90;;;1.77;;
79171;SDS011;68597;53.238;-1.418;2023-03-14T05:08:11;11.27;;;1.60;;
79171;SDS011;68597;53.238;-1.418;2023-03-14T05:10:51;6.25;;;1.50;;
79171;SDS011;68597;53.238;-1.418;2023-03-14T05:13:43;4.38;;;1.30;;
79171;SDS011;68597;53.238;-1.418;2023-03-14T05:16:45;5.18;;;1.25;;
79171;SDS011;68597;53.238;-1.418;2023-03-14T05:19:37;6.65;;;1.55;;
79171;SDS011;68597;53.238;-1.418;2023-03-14T05:22:22;7.90;;;1.52;;
79171;SDS011;68597;53.238;-1.418;2023-03-14T05:24:57;7.95;;;1.48;;
79171;SDS011;68597;53.238;-1.418;2023-03-14T05:27:55;10.32;;;1.60;;
79171;SDS011;68597;53.238;-1.418;2023-03-14T05:30:30;8.20;;;1.60;;
79171;SDS011;68597;53.238;-1.418;2023-03-14T05:36:01;7.55;;;1.65;;
79171;SDS011;68597;53.238;-1.418;2023-03-14T05:38:27;9.30;;;1.70;;
79171;SDS011;68597;53.238;-1.418;2023-03-14T05:41:22;10.77;;;1.90;;
79171;SDS011;68597;53.238;-1.418;2023-03-14T05:44:05;4.90;;;2.28;;
79171;SDS011;68597;53.238;-1.418;2023-03-14T05:46:51;10.00;;;2.35;;
79171;SDS011;68597;53.238;-1.418;2023-03-14T05:49:31;8.75;;;2.08;;
79171;SDS011;68597;53.238;-1.418;2023-03-14T05:52:21;7.97;;;1.70;;
79171;SDS011;68597;53.238;-1.418;2023-03-14T05:55:22;6.22;;;1.30;;
79171;SDS011;68597;53.238;-1.418;2023-03-14T05:57:53;9.30;;;1.83;;
79171;SDS011;68597;53.238;-1.418;2023-03-14T06:00:33;10.48;;;1.98;;
79171;SDS011;68597;53.238;-1.418;2023-03-14T06:03:20;8.07;;;2.03;;
79171;SDS011;68597;53.238;-1.418;2023-03-14T06:05:50;12.52;;;2.45;;
79171;SDS011;68597;53.238;-1.418;2023-03-14T06:08:16;14.48;;;1.77;;
79171;SDS011;68597;53.238;-1.418;2023-03-14T06:10:41;11.73;;;1.63;;
79171;SDS011;68597;53.238;-1.418;2023-03-14T06:13:07;16.10;;;2.65;;
79171;SDS011;68597;53.238;-1.418;2023-03-14T06:15:33;8.23;;;1.55;;
79171;SDS011;68597;53.238;-1.418;2023-03-14T06:17:59;12.80;;;1.88;;
79171;SDS011;68597;53.238;-1.418;2023-03-14T06:20:26;23.85;;;3.53;;
79171;SDS011;68597;53.238;-1.418;2023-03-14T06:22:54;14.43;;;2.00;;
79171;SDS011;68597;53.238;-1.418;2023-03-14T06:25:20;11.07;;;2.00;;
79171;SDS011;68597;53.238;-1.418;2023-03-14T06:27:47;13.70;;;3.03;;
79171;SDS011;68597;53.238;-1.418;2023-03-14T06:30:13;8.27;;;1.95;;
79171;SDS011;68597;53.238;-1.418;2023-03-14T06:32:39;15.05;;;2.38;;
79171;SDS011;68597;53.238;-1.418;2023-03-14T06:35:08;9.73;;;1.98;;
79171;SDS011;68597;53.238;-1.418;2023-03-14T06:37:39;11.98;;;2.65;;
79171;SDS011;68597;53.238;-1.418;2023-03-14T06:40:07;15.77;;;2.00;;
79171;SDS011;68597;53.238;-1.418;2023-03-14T06:45:16;13.95;;;2.33;;
79171;SDS011;68597;53.238;-1.418;2023-03-14T06:47:42;17.25;;;2.88;;
79171;SDS011;68597;53.238;-1.418;2023-03-14T06:50:08;10.93;;;2.28;;
79171;SDS011;68597;53.238;-1.418;2023-03-14T06:52:35;19.02;;;2.53;;
79171;SDS011;68597;53.238;-1.418;2023-03-14T06:55:01;10.55;;;2.03;;
79171;SDS011;68597;53.238;-1.418;2023-03-14T06:57:32;11.18;;;1.75;;
79171;SDS011;68597;53.238;-1.418;2023-03-14T06:59:57;12.77;;;2.00;;
79171;SDS011;68597;53.238;-1.418;2023-03-14T07:02:23;11.68;;;2.03;;
79171;SDS011;68597;53.238;-1.418;2023-03-14T07:04:49;8.10;;;2.22;;
79171;SDS011;68597;53.238;-1.418;2023-03-14T07:07:15;9.43;;;1.90;;
79171;SDS011;68597;53.238;-1.418;2023-03-14T07:09:41;8.27;;;1.95;;
79171;SDS011;68597;53.238;-1.418;2023-03-14T07:12:06;16.00;;;2.30;;
79171;SDS011;68597;53.238;-1.418;2023-03-14T07:14:33;15.73;;;1.95;;
79171;SDS011;68597;53.238;-1.418;2023-03-14T07:16:59;13.02;;;2.53;;
79171;SDS011;68597;53.238;-1.418;2023-03-14T07:19:25;10.77;;;1.92;;
79171;SDS011;68597;53.238;-1.418;2023-03-14T07:21:51;17.38;;;2.78;;
79171;SDS011;68597;53.238;-1.418;2023-03-14T07:24:21;18.08;;;1.75;;
79171;SDS011;68597;53.238;-1.418;2023-03-14T07:26:46;11.30;;;1.83;;
79171;SDS011;68597;53.238;-1.418;2023-03-14T07:29:12;13.90;;;2.83;;
79171;SDS011;68597;53.238;-1.418;2023-03-14T07:31:40;10.18;;;2.67;;
79171;SDS011;68597;53.238;-1.418;2023-03-14T07:34:06;10.90;;;1.85;;
79171;SDS011;68597;53.238;-1.418;2023-03-14T07:36:36;8.93;;;1.60;;
79171;SDS011;68597;53.238;-1.418;2023-03-14T07:39:03;9.65;;;1.65;;
79171;SDS011;68597;53.238;-1.418;2023-03-14T07:41:38;15.13;;;3.13;;
79171;SDS011;68597;53.238;-1.418;2023-03-14T07:44:22;9.05;;;1.50;;
79171;SDS011;68597;53.238;-1.418;2023-03-14T07:46:49;11.82;;;2.05;;
79171;SDS011;68597;53.238;-1.418;2023-03-14T07:49:14;9.60;;;1.90;;
79171;SDS011;68597;53.238;-1.418;2023-03-14T07:51:40;8.30;;;2.03;;
79171;SDS011;68597;53.238;-1.418;2023-03-14T07:54:05;11.95;;;2.80;;
79171;SDS011;68597;53.238;-1.418;2023-03-14T07:56:31;9.63;;;1.85;;
79171;SDS011;68597;53.238;-1.418;2023-03-14T07:58:56;11.80;;;2.63;;
79171;SDS011;68597;53.238;-1.418;2023-03-14T08:01:22;14.68;;;1.95;;
79171;SDS011;68597;53.238;-1.418;2023-03-14T08:03:49;8.75;;;1.73;;
79171;SDS011;68597;53.238;-1.418;2023-03-14T08:06:14;14.00;;;1.75;;
79171;SDS011;68597;53.238;-1.418;2023-03-14T08:08:40;14.00;;;2.67;;
79171;SDS011;68597;53.238;-1.418;2023-03-14T08:11:06;12.32;;;1.90;;
79171;SDS011;68597;53.238;-1.418;2023-03-14T08:13:32;7.47;;;1.48;;
79171;SDS011;68597;53.238;-1.418;2023-03-14T08:15:58;10.63;;;1.65;;
79171;SDS011;68597;53.238;-1.418;2023-03-14T08:18:23;5.97;;;1.42;;
79171;SDS011;68597;53.238;-1.418;2023-03-14T08:20:50;12.88;;;2.97;;
79171;SDS011;68597;53.238;-1.418;2023-03-14T08:23:15;6.60;;;1.45;;
79171;SDS011;68597;53.238;-1.418;2023-03-14T08:25:41;10.57;;;1.80;;
79171;SDS011;68597;53.238;-1.418;2023-03-14T08:28:06;8.77;;;1.45;;
79171;SDS011;68597;53.238;-1.418;2023-03-14T08:30:32;8.02;;;1.75;;
79171;SDS011;68597;53.238;-1.418;2023-03-14T08:32:57;7.07;;;1.05;;
79171;SDS011;68597;53.238;-1.418;2023-03-14T08:35:23;7.72;;;1.60;;
79171;SDS011;68597;53.238;-1.418;2023-03-14T08:37:51;6.18;;;1.17;;
79171;SDS011;68597;53.238;-1.418;2023-03-14T08:40:16;10.43;;;1.83;;
79171;SDS011;68597;53.238;-1.418;2023-03-14T08:42:42;8.88;;;1.40;;
79171;SDS011;68597;53.238;-1.418;2023-03-14T08:45:08;6.47;;;1.20;;
79171;SDS011;68597;53.238;-1.418;2023-03-14T08:47:36;8.55;;;1.40;;
79171;SDS011;68597;53.238;-1.418;2023-03-14T08:50:01;10.68;;;2.85;;
79171;SDS011;68597;53.238;-1.418;2023-03-14T08:52:27;12.52;;;2.35;;
79171;SDS011;68597;53.238;-1.418;2023-03-14T08:54:54;11.02;;;1.70;;
79171;SDS011;68597;53.238;-1.418;2023-03-14T08:57:19;8.32;;;1.40;;
79171;SDS011;68597;53.238;-1.418;2023-03-14T08:59:45;9.73;;;1.92;;
79171;SDS011;68597;53.238;-1.418;2023-03-14T09:02:10;16.13;;;1.75;;
79171;SDS011;68597;53.238;-1.418;2023-03-14T09:04:36;17.02;;;1.67;;
79171;SDS011;68597;53.238;-1.418;2023-03-14T09:07:02;6.82;;;1.50;;
79171;SDS011;68597;53.238;-1.418;2023-03-14T09:09:27;6.90;;;1.30;;
79171;SDS011;68597;53.238;-1.418;2023-03-14T09:11:54;18.00;;;2.70;;
79171;SDS011;68597;53.238;-1.418;2023-03-14T09:14:20;11.57;;;2.72;;
79171;SDS011;68597;53.238;-1.418;2023-03-14T09:16:45;13.88;;;2.15;;
79171;SDS011;68597;53.238;-1.418;2023-03-14T09:19:11;10.02;;;1.70;;
79171;SDS011;68597;53.238;-1.418;2023-03-14T09:21:36;9.10;;;1.90;;
79171;SDS011;68597;53.238;-1.418;2023-03-14T09:24:02;8.77;;;1.20;;
79171;SDS011;68597;53.238;-1.418;2023-03-14T09:26:27;8.40;;;1.38;;
79171;SDS011;68597;53.238;-1.418;2023-03-14T09:28:54;10.27;;;1.70;;
79171;SDS011;68597;53.238;-1.418;2023-03-14T09:31:20;13.77;;;1.45;;
79171;SDS011;68597;53.238;-1.418;2023-03-14T09:33:45;9.95;;;1.60;;
79171;SDS011;68597;53.238;-1.418;2023-03-14T09:36:11;13.00;;;1.95;;
79171;SDS011;68597;53.238;-1.418;2023-03-14T09:38:36;6.35;;;1.40;;
79171;SDS011;68597;53.238;-1.418;2023-03-14T09:41:02;11.00;;;1.70;;
79171;SDS011;68597;53.238;-1.418;2023-03-14T09:43:36;9.85;;;1.73;;
79171;SDS011;68597;53.238;-1.418;2023-03-14T09:46:04;7.25;;;1.80;;
79171;SDS011;68597;53.238;-1.418;2023-03-14T09:48:32;12.88;;;2.00;;
79171;SDS011;68597;53.238;-1.418;2023-03-14T09:50:59;12.93;;;2.10;;
79171;SDS011;68597;53.238;-1.418;2023-03-14T09:53:31;7.20;;;2.05;;
79171;SDS011;68597;53.238;-1.418;2023-03-14T09:56:01;8.60;;;1.65;;
79171;SDS011;68597;53.238;-1.418;2023-03-14T09:58:27;11.52;;;2.97;;
79171;SDS011;68597;53.238;-1.418;2023-03-14T10:00:54;9.82;;;1.75;;
79171;SDS011;68597;53.238;-1.418;2023-03-14T10:03:24;10.60;;;1.67;;
79171;SDS011;68597;53.238;-1.418;2023-03-14T10:05:53;11.98;;;2.35;;
79171;SDS011;68597;53.238;-1.418;2023-03-14T10:08:20;9.45;;;2.45;;
79171;SDS011;68597;53.238;-1.418;2023-03-14T10:10:46;7.93;;;1.40;;
79171;SDS011;68597;53.238;-1.418;2023-03-14T10:13:14;10.20;;;2.05;;
79171;SDS011;68597;53.238;-1.418;2023-03-14T10:15:42;8.35;;;1.70;;
79171;SDS011;68597;53.238;-1.418;2023-03-14T10:18:13;15.10;;;2.00;;
79171;SDS011;68597;53.238;-1.418;2023-03-14T10:20:41;9.13;;;2.05;;
79171;SDS011;68597;53.238;-1.418;2023-03-14T10:23:18;14.77;;;2.17;;
79171;SDS011;68597;53.238;-1.418;2023-03-14T10:25:58;8.85;;;2.13;;
79171;SDS011;68597;53.238;-1.418;2023-03-14T10:28:28;10.02;;;1.95;;
79171;SDS011;68597;53.238;-1.418;2023-03-14T10:30:55;9.70;;;1.95;;
79171;SDS011;68597;53.238;-1.418;2023-03-14T10:33:24;13.75;;;2.95;;
79171;SDS011;68597;53.238;-1.418;2023-03-14T10:35:56;8.93;;;1.85;;
79171;SDS011;68597;53.238;-1.418;2023-03-14T10:38:23;8.55;;;1.92;;
79171;SDS011;68597;53.238;-1.418;2023-03-14T10:40:51;11.00;;;1.92;;
79171;SDS011;68597;53.238;-1.418;2023-03-14T10:43:19;9.80;;;1.77;;
79171;SDS011;68597;53.238;-1.418;2023-03-14T10:45:51;9.10;;;1.83;;
79171;SDS011;68597;53.238;-1.418;2023-03-14T10:48:19;7.90;;;1.63;;
79171;SDS011;68597;53.238;-1.418;2023-03-14T10:50:50;14.40;;;2.65;;
79171;SDS011;68597;53.238;-1.418;2023-03-14T10:53:22;10.95;;;2.38;;
79171;SDS011;68597;53.238;-1.418;2023-03-14T10:55:47;9.10;;;2.28;;
79171;SDS011;68597;53.238;-1.418;2023-03-14T10:58:20;9.55;;;2.13;;
79171;SDS011;68597;53.238;-1.418;2023-03-14T11:00:48;11.85;;;2.13;;
79171;SDS011;68597;53.238;-1.418;2023-03-14T11:03:17;10.75;;;2.22;;
79171;SDS011;68597;53.238;-1.418;2023-03-14T11:05:44;11.05;;;1.73;;
79171;SDS011;68597;53.238;-1.418;2023-03-14T11:08:16;10.20;;;2.03;;
79171;SDS011;68597;53.238;-1.418;2023-03-14T11:10:47;13.95;;;2.50;;
79171;SDS011;68597;53.238;-1.418;2023-03-14T11:13:19;8.38;;;1.63;;
79171;SDS011;68597;53.238;-1.418;2023-03-14T11:15:50;11.68;;;2.47;;
79171;SDS011;68597;53.238;-1.418;2023-03-14T11:18:27;15.90;;;4.35;;
79171;SDS011;68597;53.238;-1.418;2023-03-14T11:21:16;13.10;;;2.33;;
79171;SDS011;68597;53.238;-1.418;2023-03-14T11:23:46;14.48;;;3.10;;
79171;SDS011;68597;53.238;-1.418;2023-03-14T11:26:26;18.48;;;3.67;;
79171;SDS011;68597;53.238;-1.418;2023-03-14T11:28:58;9.68;;;2.35;;
79171;SDS011;68597;53.238;-1.418;2023-03-14T11:31:26;12.75;;;2.33;;
79171;SDS011;68597;53.238;-1.418;2023-03-14T11:33:54;18.73;;;3.00;;
79171;SDS011;68597;53.238;-1.418;2023-03-14T11:36:26;12.07;;;2.35;;
79171;SDS011;68597;53.238;-1.418;2023-03-14T11:38:55;9.85;;;2.22;;
79171;SDS011;68597;53.238;-1.418;2023-03-14T11:41:22;8.13;;;1.65;;
79171;SDS011;68597;53.238;-1.418;2023-03-14T11:43:53;9.52;;;1.58;;
79171;SDS011;68597;53.238;-1.418;2023-03-14T11:46:21;6.38;;;1.30;;
79171;SDS011;68597;53.238;-1.418;2023-03-14T11:48:53;8.23;;;2.13;;
79171;SDS011;68597;53.238;-1.418;2023-03-14T11:51:25;5.60;;;1.08;;
79171;SDS011;68597;53.238;-1.418;2023-03-14T11:53:57;7.45;;;1.30;;
79171;SDS011;68597;53.238;-1.418;2023-03-14T11:56:29;9.07;;;2.00;;
79171;SDS011;68597;53.238;-1.418;2023-03-14T11:59:01;10.82;;;1.67;;
79171;SDS011;68597;53.238;-1.418;2023-03-14T12:01:33;7.00;;;1.25;;
79171;SDS011;68597;53.238;-1.418;2023-03-14T12:04:07;3.88;;;0.85;;
79171;SDS011;68597;53.238;-1.418;2023-03-14T12:06:38;7.03;;;1.52;;
79171;SDS011;68597;53.238;-1.418;2023-03-14T12:09:12;8.13;;;1.77;;
79171;SDS011;68597;53.238;-1.418;2023-03-14T12:11:39;6.75;;;1.20;;
79171;SDS011;68597;53.238;-1.418;2023-03-14T12:14:18;4.53;;;1.00;;
79171;SDS011;68597;53.238;-1.418;2023-03-14T12:16:47;5.25;;;1.13;;
79171;SDS011;68597;53.238;-1.418;2023-03-14T12:24:53;4.85;;;1.27;;
79171;SDS011;68597;53.238;-1.418;2023-03-14T12:27:42;7.13;;;1.95;;
79171;SDS011;68597;53.238;-1.418;2023-03-14T12:30:22;9.75;;;2.85;;
79171;SDS011;68597;53.238;-1.418;2023-03-14T12:35:57;8.10;;;1.50;;
79171;SDS011;68597;53.238;-1.418;2023-03-14T12:41:28;9.32;;;2.00;;
79171;SDS011;68597;53.238;-1.418;2023-03-14T12:44:13;9.52;;;2.05;;
79171;SDS011;68597;53.238;-1.418;2023-03-14T12:50:20;11.40;;;2.00;;
79171;SDS011;68597;53.238;-1.418;2023-03-14T12:52:56;5.97;;;1.10;;
79171;SDS011;68597;53.238;-1.418;2023-03-14T12:55:45;8.35;;;1.67;;
79171;SDS011;68597;53.238;-1.418;2023-03-14T12:58:15;5.05;;;1.50;;
79171;SDS011;68597;53.238;-1.418;2023-03-14T13:00:44;12.52;;;2.95;;
79171;SDS011;68597;53.238;-1.418;2023-03-14T13:03:15;6.38;;;1.10;;
79171;SDS011;68597;53.238;-1.418;2023-03-14T13:05:52;20.85;;;3.75;;
79171;SDS011;68597;53.238;-1.418;2023-03-14T13:08:32;6.65;;;1.13;;
79171;SDS011;68597;53.238;-1.418;2023-03-14T13:11:02;8.63;;;1.63;;
79171;SDS011;68597;53.238;-1.418;2023-03-14T13:13:29;12.10;;;2.20;;
79171;SDS011;68597;53.238;-1.418;2023-03-14T13:15:55;6.72;;;0.93;;
79171;SDS011;68597;53.238;-1.418;2023-03-14T13:18:24;15.00;;;2.38;;
79171;SDS011;68597;53.238;-1.418;2023-03-14T13:20:56;9.38;;;1.70;;
79171;SDS011;68597;53.238;-1.418;2023-03-14T13:23:27;9.90;;;1.23;;
79171;SDS011;68597;53.238;-1.418;2023-03-14T13:25:54;7.35;;;1.40;;
79171;SDS011;68597;53.238;-1.418;2023-03-14T13:28:20;15.73;;;2.95;;
79171;SDS011;68597;53.238;-1.418;2023-03-14T13:30:47;6.57;;;1.15;;
79171;SDS011;68597;53.238;-1.418;2023-03-14T13:33:15;6.93;;;1.08;;
79171;SDS011;68597;53.238;-1.418;2023-03-14T13:35:44;11.07;;;2.63;;
79171;SDS011;68597;53.238;-1.418;2023-03-14T13:38:16;11.48;;;2.63;;
79171;SDS011;68597;53.238;-1.418;2023-03-14T13:40:43;12.65;;;2.10;;
79171;SDS011;68597;53.238;-1.418;2023-03-14T13:43:12;3.95;;;1.15;;
79171;SDS011;68597;53.238;-1.418;2023-03-14T13:45:41;2.08;;;0.52;;
79171;SDS011;68597;53.238;-1.418;2023-03-14T13:48:09;4.50;;;1.08;;
79171;SDS011;68597;53.238;-1.418;2023-03-14T13:50:36;3.33;;;0.73;;
79171;SDS011;68597;53.238;-1.418;2023-03-14T13:53:02;5.05;;;0.75;;
79171;SDS011;68597;53.238;-1.418;2023-03-14T13:55:28;5.00;;;1.60;;
79171;SDS011;68597;53.238;-1.418;2023-03-14T13:57:54;4.55;;;0.90;;
79171;SDS011;68597;53.238;-1.418;2023-03-14T14:00:21;5.65;;;0.85;;
79171;SDS011;68597;53.238;-1.418;2023-03-14T14:02:48;5.75;;;1.25;;
79171;SDS011;68597;53.238;-1.418;2023-03-14T14:05:13;7.07;;;0.95;;
79171;SDS011;68597;53.238;-1.418;2023-03-14T14:07:40;6.32;;;1.40;;
79171;SDS011;68597;53.238;-1.418;2023-03-14T14:10:09;4.72;;;1.23;;
79171;SDS011;68597;53.238;-1.418;2023-03-14T14:12:38;4.13;;;1.00;;
79171;SDS011;68597;53.238;-1.418;2023-03-14T14:15:09;4.82;;;0.70;;
79171;SDS011;68597;53.238;-1.418;2023-03-14T14:17:40;2.45;;;0.55;;
79171;SDS011;68597;53.238;-1.418;2023-03-14T14:20:12;7.25;;;1.60;;
79171;SDS011;68597;53.238;-1.418;2023-03-14T14:22:42;5.63;;;1.20;;
79171;SDS011;68597;53.238;-1.418;2023-03-14T14:25:11;7.47;;;1.33;;
79171;SDS011;68597;53.238;-1.418;2023-03-14T14:27:41;4.90;;;0.90;;
79171;SDS011;68597;53.238;-1.418;2023-03-14T14:30:24;2.17;;;0.60;;
79171;SDS011;68597;53.238;-1.418;2023-03-14T14:32:52;5.55;;;0.90;;
79171;SDS011;68597;53.238;-1.418;2023-03-14T14:35:22;1.50;;;0.45;;
79171;SDS011;68597;53.238;-1.418;2023-03-14T14:37:49;7.43;;;1.60;;
79171;SDS011;68597;53.238;-1.418;2023-03-14T14:40:16;8.07;;;1.00;;
79171;SDS011;68597;53.238;-1.418;2023-03-14T14:42:45;6.13;;;0.70;;
79171;SDS011;68597;53.238;-1.418;2023-03-14T14:45:12;6.57;;;1.00;;
79171;SDS011;68597;53.238;-1.418;2023-03-14T14:47:47;8.13;;;1.15;;
79171;SDS011;68597;53.238;-1.418;2023-03-14T14:50:25;5.75;;;0.90;;
79171;SDS011;68597;53.238;-1.418;2023-03-14T14:52:55;10.45;;;1.92;;
79171;SDS011;68597;53.238;-1.418;2023-03-14T14:55:22;4.53;;;1.10;;
79171;SDS011;68597;53.238;-1.418;2023-03-14T14:57:50;4.88;;;1.38;;
79171;SDS011;68597;53.238;-1.418;2023-03-14T15:00:18;7.97;;;1.13;;
79171;SDS011;68597;53.238;-1.418;2023-03-14T15:02:45;7.32;;;1.25;;
79171;SDS011;68597;53.238;-1.418;2023-03-14T15:05:13;5.35;;;1.08;;
79171;SDS011;68597;53.238;-1.418;2023-03-14T15:07:39;4.93;;;0.90;;
79171;SDS011;68597;53.238;-1.418;2023-03-14T15:10:05;5.63;;;0.90;;